Time;durP1;ratioP1;P1;durP2;ratioP2;P2;SDS_P1;SDS_P2;PMS_P1;PMS_P2;Temp;Humidity;BMP_temperature;BMP_pressure;BME280_temperature;BME280_humidity;BME280_pressure;Samples;Min_cycle;Max_cycle;Signal;HPM_P1;HPM_P2
2022/06/03 00:01:05;;;;;;;1.42;1.02;;;20.40;47.90;;;;;;6122835;23;20093;-92
2022/06/03 00:04:14;;;;;;;1.73;0.90;;;20.40;48.00;;;;;;6149897;23;20424;-92
2022/06/03 00:07:15;;;;;;;2.33;1.33;;;20.30;48.10;;;;;;6124496;23;20024;-90
2022/06/03 00:10:10;;;;;;;17.92;1.75;;;20.30;48.30;;;;;;6142686;23;20027;-91
2022/06/03 00:12:38;;;;;;;7.68;1.23;;;20.30;48.40;;;;;;6123443;23;20009;-91
2022/06/03 00:15:12;;;;;;;1.60;1.02;;;20.20;48.40;;;;;;6148838;23;20092;-92
2022/06/03 00:17:56;;;;;;;2.07;0.90;;;20.20;48.50;;;;;;6129232;23;20028;-91
2022/06/03 00:21:02;;;;;;;2.72;1.20;;;20.30;48.70;;;;;;6150259;23;20245;-92
2022/06/03 00:23:46;;;;;;;3.15;1.30;;;20.20;48.70;;;;;;6122638;23;20456;-92
2022/06/03 00:26:18;;;;;;;1.65;0.98;;;20.20;48.60;;;;;;6124703;23;20021;-92
2022/06/03 00:29:32;;;;;;;2.05;0.93;;;20.10;48.80;;;;;;6148086;23;20103;-90
2022/06/03 00:32:19;;;;;;;3.92;1.38;;;20.10;48.80;;;;;;6152397;23;20028;-92
2022/06/03 00:35:06;;;;;;;3.28;1.20;;;20.10;48.60;;;;;;6151386;23;20009;-91
2022/06/03 00:38:32;;;;;;;2.63;1.17;;;20.00;49.20;;;;;;6155628;23;20437;-91
2022/06/03 00:41:15;;;;;;;2.17;0.90;;;20.00;48.90;;;;;;6119082;23;20054;-91
2022/06/03 00:44:06;;;;;;;1.65;1.08;;;20.00;48.90;;;;;;6154182;23;20012;-90
2022/06/03 00:47:24;;;;;;;2.83;1.30;;;19.90;49.50;;;;;;6126112;23;20013;-91
2022/06/03 00:50:08;;;;;;;2.22;1.15;;;19.90;48.90;;;;;;6124323;23;20017;-91
2022/06/03 00:53:21;;;;;;;2.47;1.02;;;19.80;48.90;;;;;;6129094;23;20021;-92
2022/06/03 00:56:14;;;;;;;3.10;1.40;;;19.90;49.10;;;;;;6132005;23;20495;-91
2022/06/03 00:59:22;;;;;;;3.30;1.50;;;19.80;49.10;;;;;;6131016;23;20028;-91
2022/06/03 01:01:53;;;;;;;1.92;1.10;;;19.80;49.30;;;;;;6086273;23;20017;-92
2022/06/03 01:04:54;;;;;;;3.78;1.08;;;19.80;49.20;;;;;;6150911;23;20448;-92
2022/06/03 01:08:12;;;;;;;2.45;1.17;;;19.80;49.50;;;;;;6126585;23;20015;-92
2022/06/03 01:11:06;;;;;;;3.00;1.20;;;19.80;49.60;;;;;;6150141;23;20066;-91
2022/06/03 01:13:43;;;;;;;1.63;1.00;;;19.80;49.50;;;;;;6126084;23;20449;-92
2022/06/03 01:16:59;;;;;;;1.77;1.00;;;19.80;50.00;;;;;;6148806;23;20023;-91
2022/06/03 01:19:49;;;;;;;1.88;1.10;;;19.80;49.60;;;;;;6151694;23;20020;-91
2022/06/03 01:22:23;;;;;;;3.58;1.60;;;19.80;49.50;;;;;;6128925;23;20339;-92
2022/06/03 01:25:02;;;;;;;0.93;0.80;;;19.70;49.40;;;;;;6149918;23;20017;-91
2022/06/03 01:28:03;;;;;;;1.38;0.85;;;19.70;49.60;;;;;;6125956;23;20009;-90
2022/06/03 01:31:19;;;;;;;2.00;1.10;;;19.70;49.80;;;;;;6130612;23;20492;-90
2022/06/03 01:34:15;;;;;;;3.88;1.20;;;19.60;49.90;;;;;;6131541;23;20009;-91
2022/06/03 01:37:03;;;;;;;3.00;0.90;;;19.60;49.90;;;;;;6125603;23;20023;-90
2022/06/03 01:39:43;;;;;;;1.92;1.33;;;19.60;49.90;;;;;;6127836;23;20107;-90
2022/06/03 01:42:14;;;;;;;1.48;1.05;;;19.60;50.00;;;;;;6149834;23;20777;-91
2022/06/03 01:45:28;;;;;;;1.25;0.95;;;19.60;50.10;;;;;;6150310;23;20009;-91
2022/06/03 01:48:26;;;;;;;0.98;0.80;;;19.60;50.20;;;;;;6127606;23;20043;-92
2022/06/03 01:51:37;;;;;;;1.48;1.00;;;19.60;50.20;;;;;;6148795;23;20037;-91
2022/06/03 01:54:33;;;;;;;2.35;1.15;;;19.50;50.20;;;;;;6130284;23;20456;-90
2022/06/03 01:57:27;;;;;;;3.15;1.25;;;19.50;50.30;;;;;;6152214;23;20017;-91
2022/06/03 02:00:14;;;;;;;2.05;1.02;;;19.40;50.30;;;;;;6124046;23;20135;-91
2022/06/03 02:02:56;;;;;;;1.77;1.02;;;19.20;50.30;;;;;;6160126;23;20021;-90
2022/06/03 02:05:55;;;;;;;1.85;1.10;;;19.40;50.50;;;;;;6150564;23;20552;-90
2022/06/03 02:08:38;;;;;;;2.28;1.20;;;19.30;50.60;;;;;;6130163;23;20530;-92
2022/06/03 02:11:47;;;;;;;2.05;0.90;;;19.30;50.50;;;;;;6150931;23;20074;-91
2022/06/03 02:14:21;;;;;;;1.65;1.00;;;19.30;50.60;;;;;;6111561;23;20016;-91
2022/06/03 02:17:15;;;;;;;2.08;1.05;;;19.30;50.60;;;;;;6149285;23;20504;-91
2022/06/03 02:19:55;;;;;;;3.15;1.40;;;19.30;50.70;;;;;;6151479;23;20016;-91
2022/06/03 02:22:59;;;;;;;1.75;0.90;;;19.20;50.60;;;;;;6149502;23;20011;-92
2022/06/03 02:25:52;;;;;;;1.30;0.93;;;19.20;50.80;;;;;;6149934;23;20485;-91
2022/06/03 02:28:32;;;;;;;2.53;1.30;;;19.10;50.80;;;;;;6148709;23;20013;-92
2022/06/03 02:31:26;;;;;;;1.83;1.13;;;19.10;50.70;;;;;;6125056;23;20028;-91
2022/06/03 02:34:27;;;;;;;5.60;1.13;;;19.10;50.90;;;;;;6123930;23;20111;-91
2022/06/03 02:37:11;;;;;;;1.75;1.00;;;19.20;51.00;;;;;;6102813;23;20009;-91
2022/06/03 02:40:19;;;;;;;2.38;1.10;;;19.20;51.00;;;;;;6126126;23;20009;-91
2022/06/03 02:43:00;;;;;;;1.60;1.08;;;19.20;51.10;;;;;;6116683;23;20005;-91
2022/06/03 02:45:54;;;;;;;1.88;1.10;;;19.10;50.90;;;;;;6146317;23;20017;-92
2022/06/03 02:49:01;;;;;;;2.72;1.08;;;19.10;51.10;;;;;;6125809;23;20068;-90
2022/06/03 02:52:11;;;;;;;2.08;1.00;;;19.10;51.10;;;;;;6147284;23;20096;-91
2022/06/03 02:55:00;;;;;;;1.75;1.10;;;19.10;51.10;;;;;;6102400;23;20013;-91
2022/06/03 02:57:44;;;;;;;2.15;1.02;;;19.00;51.60;;;;;;6150215;23;20015;-91
2022/06/03 03:00:26;;;;;;;1.70;1.10;;;19.00;51.10;;;;;;6122925;23;20074;-90
2022/06/03 03:03:23;;;;;;;2.50;1.20;;;19.00;51.10;;;;;;6148650;23;20012;-91
2022/06/03 03:06:10;;;;;;;2.10;1.30;;;19.00;51.30;;;;;;6123506;23;20045;-90
2022/06/03 03:09:23;;;;;;;1.27;0.88;;;18.90;51.20;;;;;;6125584;23;20380;-92
2022/06/03 03:12:07;;;;;;;2.83;1.10;;;19.00;51.30;;;;;;6087997;23;20017;-90
2022/06/03 03:15:00;;;;;;;2.33;0.93;;;18.90;51.90;;;;;;6143133;23;20457;-89
2022/06/03 03:17:48;;;;;;;3.25;0.80;;;18.90;51.50;;;;;;6099772;23;20071;-92
2022/06/03 03:20:35;;;;;;;1.80;0.90;;;18.90;51.40;;;;;;6148525;23;20036;-90
2022/06/03 03:23:45;;;;;;;1.65;1.00;;;19.00;51.40;;;;;;6150145;23;20009;-91
2022/06/03 03:26:50;;;;;;;3.20;1.10;;;19.00;51.50;;;;;;6148684;23;20017;-91
2022/06/03 03:29:47;;;;;;;1.73;1.08;;;18.90;51.40;;;;;;6124564;23;20013;-91
2022/06/03 03:32:27;;;;;;;1.92;0.90;;;18.90;51.30;;;;;;6147489;23;20023;-91
2022/06/03 03:35:28;;;;;;;2.60;1.48;;;18.90;51.30;;;;;;6149433;23;20143;-91
2022/06/03 03:38:17;;;;;;;5.63;1.13;;;18.90;51.50;;;;;;6148878;23;20009;-91
2022/06/03 03:41:28;;;;;;;2.08;1.10;;;18.90;51.50;;;;;;6147577;23;20444;-92
2022/06/03 03:44:25;;;;;;;1.63;1.20;;;18.90;51.60;;;;;;6125591;23;20036;-92
2022/06/03 03:47:13;;;;;;;3.15;1.45;;;18.90;51.60;;;;;;6144643;23;20484;-91
2022/06/03 03:50:09;;;;;;;3.95;2.00;;;18.90;51.70;;;;;;6127302;23;20147;-91
2022/06/03 03:53:29;;;;;;;2.50;1.48;;;18.80;51.70;;;;;;6149603;23;20017;-91
2022/06/03 03:56:16;;;;;;;2.67;1.17;;;18.80;51.70;;;;;;6125877;23;20084;-91
2022/06/03 03:59:23;;;;;;;1.67;1.08;;;18.90;51.70;;;;;;6150503;23;20012;-92
2022/06/03 04:02:41;;;;;;;1.70;1.02;;;18.80;51.80;;;;;;6146889;23;20020;-90
2022/06/03 04:05:50;;;;;;;3.55;1.40;;;18.80;51.80;;;;;;6148542;23;20457;-91
2022/06/03 04:08:43;;;;;;;4.68;1.35;;;18.80;51.70;;;;;;6156793;23;20380;-91
2022/06/03 04:11:26;;;;;;;2.63;1.40;;;18.80;51.70;;;;;;6172701;23;20243;-89
2022/06/03 04:14:31;;;;;;;2.28;1.00;;;18.80;51.70;;;;;;6149054;23;20032;-89
2022/06/03 04:17:15;;;;;;;3.97;1.50;;;18.70;51.80;;;;;;6136062;23;20017;-91
2022/06/03 04:20:16;;;;;;;2.72;1.30;;;18.70;51.80;;;;;;6151381;23;20009;-90
2022/06/03 04:23:03;;;;;;;2.03;1.13;;;18.70;52.10;;;;;;6129257;23;20021;-91
2022/06/03 04:26:12;;;;;;;3.42;1.58;;;18.60;52.60;;;;;;6150440;23;20047;-90
2022/06/03 04:29:37;;;;;;;2.00;1.00;;;18.70;52.10;;;;;;6150321;23;20025;-90
2022/06/03 04:32:46;;;;;;;3.60;1.23;;;19.10;52.30;;;;;;6150329;23;20100;-90
2022/06/03 04:35:45;;;;;;;2.38;1.30;;;18.70;52.20;;;;;;6178393;23;20036;-91
2022/06/03 04:38:38;;;;;;;2.95;1.50;;;18.70;52.20;;;;;;6132517;23;20063;-91
2022/06/03 04:41:42;;;;;;;1.30;1.10;;;18.60;52.20;;;;;;6129582;23;20021;-90
2022/06/03 04:44:44;;;;;;;3.10;1.30;;;18.60;52.40;;;;;;6154276;23;20013;-91
2022/06/03 04:48:07;;;;;;;2.40;1.20;;;18.60;52.40;;;;;;6151212;23;20021;-91
2022/06/03 04:51:09;;;;;;;3.42;1.00;;;18.60;52.50;;;;;;6177942;23;20024;-91
2022/06/03 04:54:24;;;;;;;1.13;0.80;;;18.60;52.40;;;;;;6130956;23;20064;-89
2022/06/03 04:57:14;;;;;;;2.42;1.05;;;18.60;52.60;;;;;;6147599;23;20096;-90
2022/06/03 05:00:17;;;;;;;2.95;1.30;;;18.60;52.60;;;;;;6176214;23;20005;-91
2022/06/03 05:03:01;;;;;;;1.95;1.27;;;18.50;52.60;;;;;;6149915;23;20354;-91
2022/06/03 05:06:00;;;;;;;2.63;1.33;;;18.50;52.90;;;;;;6151617;23;20403;-91
2022/06/03 05:08:37;;;;;;;2.55;1.17;;;18.60;52.90;;;;;;6128044;23;20009;-90
2022/06/03 05:11:46;;;;;;;6.85;1.58;;;18.60;52.90;;;;;;6153407;23;20155;-92
2022/06/03 05:15:08;;;;;;;2.33;1.30;;;18.60;53.10;;;;;;6155244;23;20009;-91
2022/06/03 05:17:40;;;;;;;2.13;1.30;;;18.60;53.10;;;;;;6154628;23;20049;-91
2022/06/03 05:20:43;;;;;;;1.95;1.10;;;18.60;53.10;;;;;;6153964;23;20016;-91
2022/06/03 05:23:43;;;;;;;2.80;1.40;;;18.60;53.30;;;;;;6129055;23;20001;-91
2022/06/03 05:26:33;;;;;;;1.70;1.30;;;18.70;53.40;;;;;;6126751;23;20096;-91
2022/06/03 05:29:47;;;;;;;3.58;1.40;;;18.70;53.40;;;;;;6152694;23;20096;-91
2022/06/03 05:32:40;;;;;;;3.08;1.55;;;18.70;53.50;;;;;;6100206;23;20019;-93
2022/06/03 05:35:23;;;;;;;2.45;1.30;;;18.80;53.60;;;;;;6148840;23;20447;-91
2022/06/03 05:38:34;;;;;;;2.70;1.42;;;18.80;53.80;;;;;;6150137;23;20009;-92
2022/06/03 05:44:44;;;;;;;6.47;1.48;;;18.80;53.80;;;;;;6159550;23;20404;-91
2022/06/03 05:47:52;;;;;;;2.17;1.33;;;18.80;53.90;;;;;;6103506;23;20468;-92
2022/06/03 05:50:30;;;;;;;4.80;1.40;;;18.90;54.10;;;;;;6107455;23;20429;-93
2022/06/03 05:53:21;;;;;;;3.92;1.23;;;18.90;54.10;;;;;;6127639;23;20013;-92
2022/06/03 05:56:40;;;;;;;3.35;1.40;;;18.90;54.30;;;;;;6150054;23;20024;-92
2022/06/03 06:00:06;;;;;;;3.08;1.45;;;19.00;54.50;;;;;;6150744;23;20087;-91
2022/06/03 06:03:05;;;;;;;2.33;1.27;;;19.00;54.50;;;;;;6149261;23;20472;-93
2022/06/03 06:06:28;;;;;;;2.70;1.20;;;19.10;54.60;;;;;;6131711;23;20009;-92
2022/06/03 06:09:09;;;;;;;1.80;1.10;;;19.10;54.60;;;;;;6100359;23;20033;-93
2022/06/03 06:11:59;;;;;;;5.63;1.30;;;19.20;54.50;;;;;;6098663;23;20076;-92
2022/06/03 06:14:47;;;;;;;4.47;1.23;;;19.20;54.60;;;;;;6124204;23;20013;-92
2022/06/03 06:18:00;;;;;;;2.67;1.50;;;19.20;54.50;;;;;;6121169;23;20080;-93
2022/06/03 06:20:42;;;;;;;1.73;1.10;;;19.30;54.70;;;;;;6144381;23;20017;-91
2022/06/03 06:23:18;;;;;;;2.33;1.30;;;19.30;54.60;;;;;;6119153;23;20005;-90
2022/06/03 06:26:06;;;;;;;2.47;1.40;;;19.30;54.70;;;;;;6136999;23;20032;-90
2022/06/03 06:29:09;;;;;;;2.95;1.10;;;19.40;54.80;;;;;;6104055;23;20327;-92
2022/06/03 06:32:04;;;;;;;1.75;1.10;;;19.40;54.70;;;;;;6120199;23;20092;-92
2022/06/03 06:34:44;;;;;;;1.95;1.10;;;19.50;54.70;;;;;;6121586;23;20591;-92
2022/06/03 06:37:46;;;;;;;1.70;1.10;;;19.50;55.10;;;;;;6094348;23;20041;-90
2022/06/03 06:41:14;;;;;;;2.22;1.10;;;19.50;54.70;;;;;;6139361;23;20063;-92
2022/06/03 06:44:09;;;;;;;1.55;1.10;;;19.60;54.80;;;;;;6133468;23;20017;-90
2022/06/03 06:46:53;;;;;;;4.40;1.23;;;19.60;54.60;;;;;;6133729;23;20087;-92
2022/06/03 06:49:36;;;;;;;4.72;1.55;;;19.60;54.60;;;;;;6155732;23;20004;-92
2022/06/03 06:52:18;;;;;;;3.70;1.15;;;19.60;54.60;;;;;;6130617;23;20613;-92
2022/06/03 06:55:04;;;;;;;2.20;1.40;;;19.60;54.60;;;;;;6181010;23;20048;-91
2022/06/03 06:57:34;;;;;;;2.97;1.25;;;19.70;54.60;;;;;;6176849;23;20017;-90
2022/06/03 07:00:17;;;;;;;1.10;0.82;;;19.70;54.70;;;;;;6131081;23;20066;-91
2022/06/03 07:02:53;;;;;;;3.08;1.55;;;19.70;54.70;;;;;;6154817;23;20020;-92
2022/06/03 07:05:40;;;;;;;2.90;1.20;;;19.70;54.60;;;;;;6132256;23;20349;-92
2022/06/03 07:08:22;;;;;;;2.28;1.23;;;19.70;54.50;;;;;;6180037;23;20099;-92
2022/06/03 07:11:09;;;;;;;2.80;1.40;;;19.70;54.40;;;;;;6180159;23;20024;-92
2022/06/03 07:13:47;;;;;;;2.53;1.20;;;19.70;54.30;;;;;;6180749;23;20020;-92
2022/06/03 07:20:00;;;;;;;2.58;1.30;;;19.70;54.90;;;;;;6164045;23;20412;-93
2022/06/03 07:22:42;;;;;;;2.30;1.10;;;19.80;54.30;;;;;;6158490;23;20021;-92
2022/06/03 07:25:28;;;;;;;1.90;1.13;;;19.80;54.30;;;;;;6159301;23;20773;-93
2022/06/03 07:28:05;;;;;;;2.85;1.30;;;19.80;54.20;;;;;;6152554;23;20044;-92
2022/06/03 07:30:43;;;;;;;2.88;1.35;;;19.80;54.30;;;;;;6154345;23;20023;-92
2022/06/03 07:33:31;;;;;;;4.28;1.45;;;19.80;54.40;;;;;;6132373;23;20008;-90
2022/06/03 07:36:21;;;;;;;2.70;1.13;;;19.90;54.60;;;;;;6180665;23;20020;-92
2022/06/03 07:39:18;;;;;;;1.75;1.13;;;19.90;54.60;;;;;;6181049;23;20092;-92
2022/06/03 07:42:07;;;;;;;2.00;1.20;;;19.90;54.50;;;;;;6166337;23;20017;-90
2022/06/03 07:44:57;;;;;;;1.10;0.90;;;19.90;54.40;;;;;;6148593;23;20097;-92
2022/06/03 07:47:25;;;;;;;2.13;1.05;;;19.90;54.40;;;;;;6154544;23;20367;-92
2022/06/03 07:49:57;;;;;;;3.58;1.20;;;19.90;54.50;;;;;;6155223;23;20005;-92
2022/06/03 07:52:48;;;;;;;4.72;1.38;;;20.00;54.50;;;;;;6130790;23;20399;-91
2022/06/03 07:55:20;;;;;;;2.58;1.40;;;20.00;54.50;;;;;;6131533;23;20020;-92
2022/06/03 07:57:55;;;;;;;2.33;1.42;;;20.00;54.50;;;;;;6131182;23;20483;-91
2022/06/03 08:00:22;;;;;;;2.97;1.50;;;20.10;54.60;;;;;;6131762;23;20023;-91
2022/06/03 08:03:06;;;;;;;1.52;1.10;;;20.10;54.70;;;;;;6131100;23;20083;-91
2022/06/03 08:05:33;;;;;;;5.40;1.45;;;20.10;54.90;;;;;;6131143;23;20008;-92
2022/06/03 08:10:59;;;;;;;1.65;1.10;;;20.10;55.00;;;;;;6162047;23;20348;-92
2022/06/03 08:13:38;;;;;;;5.75;1.70;;;20.10;55.10;;;;;;6131080;23;20004;-92
2022/06/03 08:16:11;;;;;;;2.00;1.30;;;20.20;55.30;;;;;;6155950;23;20012;-92
2022/06/03 08:18:42;;;;;;;2.28;1.42;;;20.20;55.50;;;;;;6132250;23;20047;-92
2022/06/03 08:21:21;;;;;;;2.15;1.30;;;20.20;55.40;;;;;;6131135;23;20008;-92
2022/06/03 08:23:47;;;;;;;3.38;1.67;;;20.20;55.40;;;;;;6155299;23;20016;-93
2022/06/03 08:26:17;;;;;;;2.30;1.20;;;20.20;55.40;;;;;;6156028;23;20020;-92
2022/06/03 08:28:48;;;;;;;3.47;1.50;;;20.20;55.50;;;;;;6146717;22;20005;-90
2022/06/03 08:31:15;;;;;;;3.03;1.50;;;20.30;55.60;;;;;;6152978;23;20008;-90
2022/06/03 08:33:47;;;;;;;3.47;2.03;;;20.30;55.70;;;;;;6153151;23;20012;-90
2022/06/03 08:36:18;;;;;;;4.90;1.40;;;20.30;56.30;;;;;;6134014;23;20017;-92
2022/06/03 08:38:56;;;;;;;3.63;1.50;;;20.30;55.70;;;;;;6131204;23;20004;-92
2022/06/03 08:42:13;;;;;;;2.10;1.20;;;20.40;55.80;;;;;;6131388;23;20230;-92
2022/06/03 08:45:16;;;;;;;2.55;1.38;;;20.30;55.80;;;;;;6119454;23;20396;-91
2022/06/03 08:47:54;;;;;;;3.67;1.33;;;20.40;55.90;;;;;;6143648;23;20024;-92
2022/06/03 08:50:29;;;;;;;3.88;1.45;;;20.40;56.00;;;;;;6131279;23;20005;-92
2022/06/03 08:53:07;;;;;;;2.90;1.30;;;20.50;56.00;;;;;;6130502;23;20016;-92
2022/06/03 08:55:42;;;;;;;4.80;1.38;;;20.50;55.80;;;;;;6130556;23;20011;-92
2022/06/03 08:58:33;;;;;;;;;;;20.50;55.80;;;;;;6181634;23;20042;-92
2022/06/03 09:01:25;;;;;;;3.60;1.52;;;20.60;55.60;;;;;;6159482;23;19903;-91
2022/06/03 09:04:19;;;;;;;2.13;1.30;;;20.60;55.70;;;;;;6158779;23;20336;-92
2022/06/03 09:07:00;;;;;;;5.07;1.53;;;20.60;55.60;;;;;;6157264;23;20040;-92
2022/06/03 09:10:11;;;;;;;4.28;1.52;;;20.60;55.70;;;;;;6181093;23;20011;-92
2022/06/03 09:12:51;;;;;;;3.75;1.50;;;20.70;55.90;;;;;;6136038;23;20009;-92
2022/06/03 09:15:28;;;;;;;2.38;1.45;;;21.00;56.10;;;;;;6156721;23;20070;-93
2022/06/03 09:18:17;;;;;;;3.47;1.23;;;20.70;55.90;;;;;;6133344;23;20387;-93
2022/06/03 09:21:09;;;;;;;2.38;1.27;;;20.80;56.10;;;;;;6158122;23;20343;-93
2022/06/03 09:23:44;;;;;;;8.95;1.70;;;20.80;56.10;;;;;;6133887;23;20024;-92
2022/06/03 09:26:23;;;;;;;4.22;1.50;;;20.80;56.30;;;;;;6129675;23;20058;-91
2022/06/03 09:28:50;;;;;;;5.70;1.80;;;20.80;56.40;;;;;;6181198;23;20155;-92
2022/06/03 09:31:16;;;;;;;4.00;1.40;;;20.80;56.60;;;;;;6128892;23;20495;-92
2022/06/03 09:33:44;;;;;;;5.72;1.65;;;20.80;56.70;;;;;;6131258;23;20009;-92
2022/06/03 09:36:15;;;;;;;2.70;1.40;;;20.90;56.80;;;;;;6130902;23;20051;-91
2022/06/03 09:39:08;;;;;;;3.75;1.77;;;20.90;56.80;;;;;;6133783;23;20347;-92
2022/06/03 09:41:43;;;;;;;7.60;2.70;;;21.00;57.10;;;;;;6132849;23;20009;-92
2022/06/03 09:44:13;;;;;;;5.75;1.88;;;20.90;57.20;;;;;;6133397;23;20019;-91
2022/06/03 09:46:39;;;;;;;3.17;1.60;;;21.00;57.40;;;;;;6132542;23;20024;-91
2022/06/03 09:49:05;;;;;;;3.90;1.67;;;21.00;57.50;;;;;;6133261;23;20009;-92
2022/06/03 09:51:55;;;;;;;4.63;2.10;;;21.10;57.60;;;;;;6129155;23;20019;-92
2022/06/03 09:54:35;;;;;;;3.35;1.80;;;21.10;57.70;;;;;;6137321;23;20004;-92
2022/06/03 09:57:40;;;;;;;5.28;1.95;;;21.20;57.70;;;;;;6132060;23;20009;-92
2022/06/03 10:00:21;;;;;;;3.70;2.20;;;21.20;58.10;;;;;;6134432;23;20008;-91
2022/06/03 10:02:47;;;;;;;5.45;2.88;;;21.20;57.90;;;;;;6132616;23;20092;-92
2022/06/03 10:05:16;;;;;;;4.38;1.92;;;21.20;58.20;;;;;;6167556;23;20004;-91
2022/06/03 10:07:44;;;;;;;3.10;2.03;;;21.20;58.20;;;;;;6155834;23;20016;-92
2022/06/03 10:13:00;;;;;;;5.50;1.85;;;21.30;58.40;;;;;;6164287;23;20032;-92
2022/06/03 10:15:44;;;;;;;2.95;1.63;;;21.30;58.50;;;;;;6131902;23;20043;-92
2022/06/03 10:18:29;;;;;;;5.47;1.90;;;21.40;58.60;;;;;;6137212;23;20017;-92
2022/06/03 10:20:59;;;;;;;5.45;2.35;;;21.40;58.50;;;;;;6154081;23;20408;-92
2022/06/03 10:23:31;;;;;;;5.00;1.85;;;21.40;58.70;;;;;;6131936;23;20020;-92
2022/06/03 10:26:02;;;;;;;4.75;1.90;;;21.50;58.70;;;;;;6133201;23;20009;-93
2022/06/03 10:28:37;;;;;;;3.17;1.80;;;21.50;58.70;;;;;;6132158;23;20028;-93
2022/06/03 10:31:06;;;;;;;;;;;21.50;58.70;;;;;;6130096;23;20013;-92
2022/06/03 10:33:33;;;;;;;2.80;1.63;;;21.60;58.50;;;;;;6153269;23;21098;-93
2022/06/03 10:36:01;;;;;;;3.78;1.90;;;21.60;59.00;;;;;;6130504;23;20051;-92
2022/06/03 10:38:32;;;;;;;4.90;1.85;;;21.60;58.60;;;;;;6153391;23;20026;-92
2022/06/03 10:41:06;;;;;;;3.65;1.73;;;21.60;58.70;;;;;;6157598;23;20005;-92
2022/06/03 10:43:35;;;;;;;3.50;1.80;;;21.60;58.90;;;;;;6174820;23;20408;-93
2022/06/03 10:46:11;;;;;;;2.28;1.38;;;21.60;58.90;;;;;;6155926;23;20005;-93
2022/06/03 10:48:37;;;;;;;;;;;21.60;59.30;;;;;;6157523;23;20014;-92
2022/06/03 10:51:17;;;;;;;3.17;1.42;;;21.60;59.10;;;;;;6154304;23;19965;-93
2022/06/03 11:02:02;;;;;;;5.30;1.80;;;21.60;60.30;;;;;;6162051;23;20020;-92
2022/06/03 11:04:30;;;;;;;6.45;1.85;;;21.60;60.70;;;;;;6131075;23;20520;-93
2022/06/03 11:07:23;;;;;;;3.58;2.05;;;21.60;61.00;;;;;;6155532;23;20019;-93
2022/06/03 11:10:06;;;;;;;6.18;2.20;;;21.60;61.40;;;;;;6158722;23;20479;-91
2022/06/03 11:12:32;;;;;;;3.25;2.13;;;21.60;62.10;;;;;;6129557;23;20468;-90
2022/06/03 11:14:58;;;;;;;5.95;2.10;;;21.60;62.30;;;;;;6129580;23;20055;-92
2022/06/03 11:17:40;;;;;;;6.05;2.20;;;21.60;62.90;;;;;;6154133;23;20017;-93
2022/06/03 11:20:36;;;;;;;6.00;2.00;;;21.60;63.60;;;;;;6133546;23;20001;-92
2022/06/03 11:23:04;;;;;;;4.95;2.20;;;21.60;63.70;;;;;;6131089;23;20023;-92
2022/06/03 11:25:36;;;;;;;5.57;2.33;;;21.60;63.60;;;;;;6131516;23;20051;-92
2022/06/03 11:28:17;;;;;;;4.32;2.47;;;21.50;63.90;;;;;;6131281;23;20058;-92
2022/06/03 11:31:10;;;;;;;3.60;2.03;;;21.50;64.40;;;;;;6155925;23;20341;-92
2022/06/03 11:33:44;;;;;;;3.80;2.60;;;21.60;64.80;;;;;;6103901;23;20020;-91
2022/06/03 11:36:22;;;;;;;5.47;2.30;;;21.50;64.90;;;;;;6132864;23;20075;-90
2022/06/03 11:38:55;;;;;;;4.68;2.35;;;21.50;65.10;;;;;;6130040;23;20047;-92
2022/06/03 11:41:44;;;;;;;5.43;2.50;;;21.50;65.20;;;;;;6131038;23;20031;-92
2022/06/03 11:44:30;;;;;;;7.80;2.70;;;21.50;65.70;;;;;;6131102;23;20012;-91
2022/06/03 11:47:17;;;;;;;4.22;2.60;;;21.50;66.00;;;;;;6132143;23;20075;-93
2022/06/03 11:49:43;;;;;;;4.57;2.22;;;21.50;66.30;;;;;;6131443;23;20009;-93
2022/06/03 11:52:09;;;;;;;5.07;2.80;;;21.50;66.40;;;;;;6129732;23;20185;-91
2022/06/03 11:54:37;;;;;;;6.50;3.35;;;21.40;67.40;;;;;;6132665;23;20437;-92
2022/06/03 11:57:03;;;;;;;4.05;2.50;;;21.40;67.20;;;;;;6129235;23;20016;-92
2022/06/03 11:59:34;;;;;;;4.68;2.65;;;21.50;67.40;;;;;;6131008;23;20004;-92
2022/06/03 12:02:41;;;;;;;8.38;2.22;;;21.40;67.90;;;;;;6152772;23;20213;-91
2022/06/03 12:05:21;;;;;;;5.40;2.40;;;21.40;68.10;;;;;;6157429;23;20008;-96
2022/06/03 12:08:26;;;;;;;5.97;2.33;;;21.40;68.10;;;;;;6130190;23;20013;-92
2022/06/03 12:14:25;;;;;;;4.28;2.35;;;21.40;68.40;;;;;;6141719;23;20016;-96
2022/06/03 12:16:57;;;;;;;;;;;21.40;68.40;;;;;;6178715;23;20012;-92
2022/06/03 12:19:45;;;;;;;4.03;2.65;;;21.40;68.00;;;;;;6154991;23;19958;-91
2022/06/03 12:22:31;;;;;;;4.57;2.90;;;21.40;68.40;;;;;;6129467;23;20013;-90
2022/06/03 12:25:35;;;;;;;4.43;2.67;;;21.40;68.90;;;;;;6179514;23;20020;-91
2022/06/03 12:28:04;;;;;;;4.85;2.55;;;21.40;69.00;;;;;;6156645;23;20427;-91
2022/06/03 12:30:37;;;;;;;4.75;3.35;;;21.40;69.10;;;;;;6154699;23;20009;-91
2022/06/03 12:33:46;;;;;;;4.25;2.90;;;21.40;69.60;;;;;;6153616;23;20051;-91
2022/06/03 12:36:34;;;;;;;3.78;2.55;;;21.40;70.10;;;;;;6187486;23;20005;-90
2022/06/03 12:39:08;;;;;;;5.38;2.58;;;21.40;70.10;;;;;;6156908;23;20463;-92
2022/06/03 12:41:46;;;;;;;4.20;2.70;;;21.40;70.30;;;;;;6181606;23;20011;-91
2022/06/03 12:44:46;;;;;;;6.07;2.45;;;21.50;70.90;;;;;;6182788;23;20028;-91
2022/06/03 12:47:18;;;;;;;5.90;2.65;;;21.50;71.30;;;;;;6178556;23;20004;-91
2022/06/03 12:49:43;;;;;;;5.00;2.92;;;21.50;71.30;;;;;;6207998;23;20001;-90
2022/06/03 12:52:29;;;;;;;4.60;2.55;;;21.50;71.60;;;;;;6201217;23;20150;-91
2022/06/03 12:55:14;;;;;;;5.03;2.60;;;21.50;72.30;;;;;;6148789;23;20063;-92
2022/06/03 12:57:57;;;;;;;5.05;2.78;;;21.50;72.50;;;;;;6179370;23;20024;-92
2022/06/03 13:00:33;;;;;;;4.60;2.58;;;21.50;72.50;;;;;;6131538;23;20107;-92
2022/06/03 13:03:17;;;;;;;7.20;3.30;;;21.60;73.40;;;;;;6130646;23;20098;-92
2022/06/03 13:05:57;;;;;;;5.63;3.20;;;21.60;73.70;;;;;;6157467;23;20440;-92
2022/06/03 13:08:28;;;;;;;6.75;3.58;;;21.60;74.40;;;;;;6132670;23;20020;-92
2022/06/03 13:11:00;;;;;;;6.32;3.40;;;21.60;74.40;;;;;;6180438;23;20276;-92
2022/06/03 13:13:34;;;;;;;6.18;3.55;;;21.60;74.60;;;;;;6179464;23;20083;-92
2022/06/03 13:16:37;;;;;;;5.18;2.78;;;21.60;74.90;;;;;;6179681;23;20036;-92
2022/06/03 13:19:18;;;;;;;6.03;3.65;;;21.60;74.90;;;;;;6179806;23;20009;-91
2022/06/03 13:22:00;;;;;;;4.80;3.17;;;21.60;75.30;;;;;;6179621;23;20467;-92
2022/06/03 13:24:34;;;;;;;4.45;3.17;;;21.70;75.60;;;;;;6179905;23;20035;-92
2022/06/03 13:27:22;;;;;;;7.20;3.10;;;21.70;75.80;;;;;;6154758;23;20012;-92
2022/06/03 13:29:56;;;;;;;8.27;2.78;;;21.70;75.90;;;;;;6179564;23;20024;-92
2022/06/03 13:32:51;;;;;;;7.17;3.47;;;21.70;75.70;;;;;;6179239;23;20040;-92
2022/06/03 13:35:27;;;;;;;6.00;3.05;;;21.70;75.90;;;;;;6133656;23;20015;-91
2022/06/03 13:37:56;;;;;;;5.40;3.50;;;21.80;76.20;;;;;;6154728;23;20352;-91
2022/06/03 13:40:24;;;;;;;4.50;3.00;;;21.80;76.50;;;;;;6182421;23;20000;-93
2022/06/03 13:42:59;;;;;;;4.50;3.13;;;21.80;76.60;;;;;;6180395;23;20028;-93
2022/06/03 13:46:00;;;;;;;5.88;3.38;;;21.80;77.10;;;;;;6178540;23;20020;-92
2022/06/03 13:48:41;;;;;;;7.22;3.10;;;21.80;77.70;;;;;;6155487;23;20027;-92
2022/06/03 13:51:31;;;;;;;4.60;2.72;;;21.80;77.70;;;;;;6182546;23;20091;-92
2022/06/03 13:54:07;;;;;;;4.68;3.03;;;21.90;78.00;;;;;;6153841;23;20027;-92
2022/06/03 13:56:33;;;;;;;5.88;2.95;;;21.90;77.80;;;;;;6155392;23;20107;-93
2022/06/03 13:59:02;;;;;;;5.53;2.70;;;21.90;78.20;;;;;;6130600;23;20058;-92
2022/06/03 14:01:42;;;;;;;11.40;4.03;;;21.90;78.20;;;;;;6130112;23;20013;-92
2022/06/03 14:04:21;;;;;;;20.75;7.15;;;21.90;78.20;;;;;;6131671;23;20024;-92
2022/06/03 14:07:07;;;;;;;8.77;3.95;;;22.00;78.10;;;;;;6132139;23;20016;-92
2022/06/03 14:09:38;;;;;;;13.73;5.70;;;22.00;77.90;;;;;;6133149;23;20510;-92
2022/06/03 14:12:06;;;;;;;23.42;8.32;;;22.00;77.70;;;;;;6132362;23;20216;-93
2022/06/03 14:14:46;;;;;;;11.88;4.63;;;22.00;77.60;;;;;;6181686;23;20013;-92
2022/06/03 14:17:46;;;;;;;13.60;4.72;;;22.10;77.70;;;;;;6156331;23;20075;-92
2022/06/03 14:20:30;;;;;;;15.40;5.45;;;22.10;77.40;;;;;;6159672;23;20562;-91
2022/06/03 14:23:09;;;;;;;12.13;4.15;;;22.10;77.40;;;;;;6156558;23;20032;-92
2022/06/03 14:25:50;;;;;;;9.45;3.28;;;22.10;77.30;;;;;;6158082;23;20008;-93
2022/06/03 14:28:25;;;;;;;5.10;2.83;;;22.10;77.40;;;;;;6158086;23;20012;-93
2022/06/03 14:31:11;;;;;;;9.82;4.28;;;22.10;77.60;;;;;;6154199;23;20012;-91
2022/06/03 14:33:44;;;;;;;8.23;4.10;;;22.10;77.40;;;;;;6157886;23;20052;-92
2022/06/03 14:36:11;;;;;;;6.90;3.05;;;22.50;77.40;;;;;;6131869;23;20008;-92
2022/06/03 14:38:49;;;;;;;5.72;2.75;;;22.10;77.00;;;;;;6131252;23;20471;-92
2022/06/03 14:41:44;;;;;;;6.40;3.60;;;22.10;76.80;;;;;;6128920;23;20032;-91
2022/06/03 14:44:18;;;;;;;4.93;2.70;;;22.10;76.80;;;;;;6129704;23;20017;-92
2022/06/03 14:47:06;;;;;;;4.97;2.88;;;22.10;76.90;;;;;;6129423;23;20051;-90
2022/06/03 14:50:11;;;;;;;4.20;3.03;;;22.10;76.90;;;;;;6130137;23;20059;-92
2022/06/03 14:53:04;;;;;;;5.97;3.28;;;22.10;77.00;;;;;;6152409;23;20023;-92